ADDS METAR Data INFO
IDs: Format: Raw Decoded Include TAF

Data at: 2048 UTC 19 Jul 2018

KVIS 191956Z AUTO 25006KT 10SM CLR 36/17 A2987 RMK AO2 SLP116 T03610172
KVIS 191856Z AUTO 26005KT 10SM CLR 34/17 A2989 RMK AO2 SLP122 T03440172
KVIS 191756Z AUTO VRB03KT 9SM CLR 33/17 A2990 RMK AO2 SLP126 T03330167 10333 20211 50000
KVIS 191656Z AUTO 00000KT 8SM CLR 31/17 A2991 RMK AO2 SLP130 T03060172
KVIS 191556Z AUTO 00000KT 10SM CLR 28/18 A2991 RMK AO2 SLP130 T02780178
KVIS 191456Z AUTO 18003KT 10SM CLR 24/17 A2990 RMK AO2 SLP127 T02440172 51012
KVIS 191356Z AUTO 16003KT 10SM CLR 22/18 A2989 RMK AO2 SLP125 T02220178
KVIS 191256Z AUTO 00000KT 10SM CLR 22/17 A2988 RMK AO2 SLP119 T02170172
KVIS 191156Z AUTO 00000KT 10SM CLR 23/18 A2987 RMK AO2 SLP115 T02280178 10278 20217 50000
KVIS 191056Z AUTO 13003KT 10SM CLR 23/18 A2987 RMK AO2 SLP115 T02280183
KVIS 190956Z AUTO 00000KT 10SM CLR 23/18 A2987 RMK AO2 SLP115 T02330183
KVIS 190856Z AUTO 12003KT 4SM HZ CLR 23/19 A2987 RMK AO2 SLP115 T02330194 58000 TSNO
KVIS 190756Z AUTO 00000KT 10SM CLR 25/19 A2987 RMK AO2 SLP116 T02500194 403830200
KVIS 190656Z AUTO 00000KT 10SM CLR 26/20 A2987 RMK AO2 SLP118 T02560200
KVIS 190556Z AUTO 22003KT 9SM CLR 28/20 A2987 RMK AO2 SLP115 T02830200 10383 20272 51009
KVIS 190456Z AUTO 00000KT 10SM CLR 28/21 A2986 RMK AO2 SLP114 T02830206
KVIS 190356Z AUTO 00000KT 8SM CLR 32/18 A2985 RMK AO2 SLP109 T03220183
KVIS 190256Z AUTO 26003KT 10SM CLR 33/18 A2984 RMK AO2 SLP106 T03280183 56005
KVIS 190156Z AUTO 06003KT 10SM CLR 36/17 A2984 RMK AO2 SLP106 T03560167
KVIS 190056Z AUTO 30006KT 10SM CLR 37/14 A2983 RMK AO2 SLP103 T03720144
KVIS 182356Z AUTO 26003KT 10SM CLR 37/15 A2985 RMK AO2 SLP111 T03720150 10372 20311 58018
KVIS 182256Z AUTO 19003KT 10SM CLR 36/17 A2987 RMK AO2 SLP118 T03610167
KVIS 182156Z AUTO 18004KT 10SM CLR 37/16 A2989 RMK AO2 SLP122 T03670161
KVIS 182056Z AUTO 21006KT 8SM CLR 36/14 A2991 RMK AO2 SLP129 T03610144 58012
KVIS 181956Z AUTO 20006KT 10SM CLR 35/15 A2992 RMK AO2 SLP133 T03500150
KVIS 181856Z AUTO 20004KT 10SM CLR 33/16 A2994 RMK AO2 SLP139 T03330156
KVIS 181756Z AUTO 00000KT 10SM CLR 31/15 A2994 RMK AO2 SLP141 T03110150 10311 20200 50001
KVIS 181656Z AUTO 21003KT 10SM CLR 29/16 A2994 RMK AO2 SLP142 T02890156
KVIS 181556Z AUTO 12004KT 10SM CLR 26/16 A2995 RMK AO2 SLP145 T02610156
KVIS 181456Z AUTO 14004KT 10SM CLR 23/16 A2994 RMK AO2 SLP139 T02330156 51010
KVIS 181356Z AUTO 13003KT 10SM CLR 21/16 A2993 RMK AO2 SLP136 T02110161
KVIS 181256Z AUTO 24004KT 10SM CLR 21/16 A2992 RMK AO2 SLP133 T02060156 TSNO
KVIS 181156Z AUTO 22005KT 10SM CLR 21/16 A2991 RMK AO2 SLP129 7//// T02060156 10278 20206 53003
KVIS 181056Z AUTO 00000KT 10SM CLR 24/14 A2990 RMK AO2 SLP126 T02390139
KVIS 180956Z AUTO 34006KT 10SM CLR 26/13 A2990 RMK AO2 SLP126 T02560133
KVIS 180856Z AUTO 33007KT 10SM CLR 25/14 A2990 RMK AO2 SLP126 T02500144 51004